Weather reports worldwide

Advertisment
Reggio Calabria, Italy (16422): temperature & dewpoint: 16.09.2018 23:00:00 - 22.09.2018 23:00:00 (CEST)Reggio Calabria, Italy (16422): wind speed: 16.09.2018 23:00:00 - 22.09.2018 23:00:00 (CEST)Reggio Calabria, Italy (16422): wind direction: 16.09.2018 23:00:00 - 22.09.2018 23:00:00 (CEST)Reggio Calabria, Italy (16422): visibility: 16.09.2018 23:00:00 - 22.09.2018 23:00:00 (CEST)
Date & Time tt [°C] td [°C] ff [km/h] ff [kn] dd vv [km]
22.09.2018 23:00:00 23,0 20,0 8 4 ENE 10
22.09.2018 22:00:00 23,0 21,0 8 4 ENE 10
22.09.2018 21:00:00 24,0 21,0 5 3 ENE 10
22.09.2018 20:00:00 24,0 21,0 4 2 - 10
22.09.2018 19:00:00 26,0 21,0 5 3 SSW 10
22.09.2018 18:00:00 27,0 21,0 9 5 SSW 10
22.09.2018 17:00:00 27,0 21,0 15 8 S 10
22.09.2018 16:00:00 28,0 21,0 16 9 SSW 10
22.09.2018 15:00:00 28,0 20,0 22 12 SSW 10
22.09.2018 14:00:00 29,0 20,0 22 12 SSW 10
22.09.2018 13:00:00 28,0 21,0 26 14 SSW 10
22.09.2018 12:00:00 28,0 21,0 29 16 SSW 10
22.09.2018 11:00:00 27,0 19,0 21 11 SSW 10
22.09.2018 10:00:00 27,0 21,0 16 9 SSW 10
22.09.2018 09:00:00 26,0 21,0 4 2 - 10
22.09.2018 08:00:00 23,0 19,0 8 4 NE 10
22.09.2018 07:00:00 22,0 19,0 5 3 E 10
22.09.2018 06:00:00 21,0 19,0 5 3 E 10
22.09.2018 05:00:00 - - - - - -
22.09.2018 04:00:00 - - - - - -
22.09.2018 03:00:00 - - - - - -
22.09.2018 02:00:00 - - - - - -
22.09.2018 01:00:00 - - - - - -
22.09.2018 00:00:00 24,0 21,0 18 10 S 10
21.09.2018 23:00:00 23,0 20,0 8 4 SE 10
21.09.2018 22:00:00 23,0 20,0 8 4 SSE 10
21.09.2018 21:00:00 25,0 20,0 13 7 S 10
21.09.2018 20:00:00 25,0 21,0 16 9 S 10
21.09.2018 19:00:00 25,0 21,0 18 10 S 10
21.09.2018 18:00:00 26,0 20,0 24 13 SSW 10
21.09.2018 17:00:00 27,0 19,0 21 11 SSW 10
21.09.2018 16:00:00 27,0 20,0 26 14 SSW 10
21.09.2018 15:00:00 27,0 20,0 24 13 SSW 10
21.09.2018 14:00:00 28,0 20,0 26 14 SSW 10
21.09.2018 13:00:00 27,0 20,0 26 14 SSW 10
21.09.2018 12:00:00 27,0 20,0 21 11 S 10
21.09.2018 11:00:00 27,0 19,0 22 12 SSW 10
21.09.2018 10:00:00 25,0 19,0 5 3 S 10
21.09.2018 09:00:00 25,0 20,0 4 2 - 10
21.09.2018 08:00:00 21,0 20,0 5 3 ENE 10
21.09.2018 07:00:00 21,0 20,0 4 2 - 10
21.09.2018 06:00:00 21,0 20,0 5 3 NE 10
21.09.2018 05:00:00 - - - - - -
21.09.2018 04:00:00 - - - - - -
21.09.2018 03:00:00 - - - - - -
21.09.2018 02:00:00 - - - - - -
21.09.2018 01:00:00 - - - - - -
21.09.2018 00:00:00 21,0 20,0 9 5 ENE 10
20.09.2018 23:00:00 21,0 19,0 8 4 ENE 10
20.09.2018 22:00:00 21,0 20,0 8 4 ENE 10
20.09.2018 21:00:00 21,0 20,0 8 4 E 10
20.09.2018 20:00:00 21,0 20,0 5 3 ENE 10
20.09.2018 19:00:00 21,0 20,0 4 2 - 10
20.09.2018 18:00:00 21,0 20,0 8 4 SE 10
20.09.2018 17:00:00 23,0 21,0 5 3 ESE 7
20.09.2018 16:00:00 20,0 20,0 16 9 NE 7
20.09.2018 15:00:00 22,0 19,0 15 8 ENE 7
20.09.2018 14:00:00 28,0 18,0 15 8 N 10
20.09.2018 13:00:00 27,0 18,0 16 9 ENE 10
20.09.2018 12:00:00 29,0 21,0 31 17 SSW 10
20.09.2018 11:00:00 28,0 22,0 21 11 SSW 10
20.09.2018 10:00:00 27,0 21,0 18 10 SSW 10
20.09.2018 09:00:00 27,0 20,0 9 5 WSW 10
20.09.2018 08:00:00 25,0 18,0 4 2 - 10
20.09.2018 07:00:00 24,0 18,0 5 3 NE 10
20.09.2018 06:00:00 23,0 18,0 5 3 E 10
20.09.2018 05:00:00 - - - - - -
20.09.2018 04:00:00 - - - - - -
20.09.2018 03:00:00 - - - - - -
20.09.2018 02:00:00 - - - - - -
20.09.2018 01:00:00 - - - - - -
20.09.2018 00:00:00 26,0 17,0 9 5 NE 10
19.09.2018 23:00:00 26,0 17,0 9 5 NNE 10
19.09.2018 22:00:00 25,0 19,0 9 5 E 10
19.09.2018 21:00:00 26,0 22,0 8 4 NNW 10
19.09.2018 20:00:00 25,0 19,0 8 4 NNE 10
19.09.2018 19:00:00 26,0 22,0 8 4 SSW 10
19.09.2018 18:00:00 26,0 20,0 9 5 S 10
19.09.2018 17:00:00 27,0 20,0 16 9 S 10
19.09.2018 16:00:00 28,0 21,0 18 10 SSW 10
19.09.2018 15:00:00 30,0 21,0 18 10 SSW 10
19.09.2018 14:00:00 30,0 22,0 28 15 SSW 10
19.09.2018 13:00:00 29,0 22,0 31 17 SSW 10
19.09.2018 12:00:00 29,0 22,0 26 14 SSW 10
19.09.2018 11:00:00 28,0 19,0 8 4 - 10
19.09.2018 10:00:00 27,0 21,0 8 4 W 10
19.09.2018 09:00:00 27,0 12,0 5 3 SSW 10
19.09.2018 08:00:00 26,0 11,0 9 5 N 10
19.09.2018 07:00:00 21,0 12,0 9 5 NE 10
19.09.2018 06:00:00 22,0 13,0 9 5 NE 10
19.09.2018 05:00:00 - - - - - -
19.09.2018 04:00:00 - - - - - -
19.09.2018 03:00:00 - - - - - -
19.09.2018 02:00:00 - - - - - -
19.09.2018 01:00:00 - - - - - -
19.09.2018 00:00:00 24,0 17,0 0 0 N 10
18.09.2018 23:00:00 23,0 18,0 8 4 NE 10
18.09.2018 22:00:00 24,0 19,0 5 3 E 10
18.09.2018 21:00:00 24,0 19,0 8 4 NE 10
18.09.2018 20:00:00 25,0 20,0 0 0 N 10
18.09.2018 19:00:00 26,0 20,0 5 3 WSW 10
18.09.2018 18:00:00 28,0 19,0 8 4 SW 10
18.09.2018 17:00:00 28,0 19,0 8 4 SW 10
18.09.2018 16:00:00 28,0 20,0 15 8 SSW 10
18.09.2018 15:00:00 29,0 20,0 13 7 SSW 10
18.09.2018 14:00:00 28,0 21,0 21 11 SSW 10
18.09.2018 13:00:00 28,0 20,0 18 10 SW 10
18.09.2018 12:00:00 28,0 20,0 13 7 SW 10
18.09.2018 11:00:00 28,0 19,0 8 4 SSW 10
18.09.2018 10:00:00 27,0 17,0 5 3 - 10
18.09.2018 09:00:00 25,0 14,0 4 2 - 10
18.09.2018 08:00:00 23,0 15,0 5 3 NE 10
18.09.2018 07:00:00 22,0 14,0 5 3 E 10
18.09.2018 06:00:00 21,0 14,0 9 5 NE 10
18.09.2018 05:00:00 - - - - - -
18.09.2018 04:00:00 - - - - - -
18.09.2018 03:00:00 - - - - - -
18.09.2018 02:00:00 - - - - - -
18.09.2018 01:00:00 - - - - - -
18.09.2018 00:00:00 23,0 16,0 9 5 ENE 10
17.09.2018 23:00:00 23,0 17,0 9 5 NE 10
17.09.2018 22:00:00 23,0 20,0 9 5 ENE 10
17.09.2018 21:00:00 25,0 20,0 5 3 SE 10
17.09.2018 20:00:00 25,0 20,0 8 4 S 10
17.09.2018 19:00:00 26,0 20,0 15 8 SW 10
17.09.2018 18:00:00 27,0 20,0 16 9 SSW 10
17.09.2018 17:00:00 28,0 20,0 16 9 SSW 10
17.09.2018 16:00:00 28,0 22,0 16 9 SSW 10
17.09.2018 15:00:00 29,0 21,0 16 9 SW 10
17.09.2018 14:00:00 29,0 19,0 15 8 SW 10
17.09.2018 13:00:00 29,0 19,0 11 6 WSW 10
17.09.2018 12:00:00 30,0 16,0 9 5 WSW 10
17.09.2018 11:00:00 28,0 20,0 13 7 NNW 10
17.09.2018 10:00:00 27,0 20,0 16 9 N 10
17.09.2018 09:00:00 26,0 19,0 11 6 N 10
17.09.2018 08:00:00 24,0 20,0 11 6 NNE 10
17.09.2018 07:00:00 23,0 19,0 15 8 N 10
17.09.2018 06:00:00 22,0 17,0 11 6 NNE 10
17.09.2018 05:00:00 - - - - - -
17.09.2018 04:00:00 - - - - - -
17.09.2018 03:00:00 - - - - - -
17.09.2018 02:00:00 - - - - - -
17.09.2018 01:00:00 - - - - - -
17.09.2018 00:00:00 22,0 16,0 9 5 ENE 10
16.09.2018 23:00:00 22,0 17,0 9 5 ENE 10

tt = temperature
td = dewpoint
ff = wind speed
dd = wind direction
vv = visibility

Next stations